createdAt,value
2023-11-27T00:00:37.811Z,6.27
2023-11-27T00:03:08.106Z,5.77
2023-11-27T00:05:35.563Z,6.23
2023-11-27T00:08:02.948Z,5.80
2023-11-27T00:10:30.103Z,5.70
2023-11-27T00:13:00.911Z,5.63
2023-11-27T00:15:28.697Z,5.23
2023-11-27T00:17:56.078Z,5.20
2023-11-27T00:20:23.667Z,4.83
2023-11-27T00:22:50.944Z,4.97
2023-11-27T00:25:18.166Z,4.70
2023-11-27T00:27:45.442Z,5.30
2023-11-27T00:30:13.162Z,5.00
2023-11-27T00:32:40.618Z,4.70
2023-11-27T00:35:07.926Z,4.73
2023-11-27T00:37:35.076Z,4.57
2023-11-27T00:40:02.317Z,4.70
2023-11-27T00:42:29.535Z,4.43
2023-11-27T00:44:56.699Z,4.70
2023-11-27T00:47:23.846Z,4.47
2023-11-27T00:49:51.008Z,4.00
2023-11-27T00:52:18.274Z,4.57
2023-11-27T00:54:45.460Z,4.47
2023-11-27T00:57:13.029Z,4.33
2023-11-27T00:59:42.030Z,4.17
2023-11-27T01:02:09.768Z,4.17
2023-11-27T01:04:39.814Z,3.80
2023-11-27T01:07:07.582Z,4.23
2023-11-27T01:09:36.910Z,4.20
2023-11-27T01:12:04.830Z,4.57
2023-11-27T01:14:32.255Z,4.20
2023-11-27T01:16:59.511Z,4.20
2023-11-27T01:19:26.964Z,3.90
2023-11-27T01:21:54.313Z,4.10
2023-11-27T01:24:21.818Z,4.00
2023-11-27T01:26:51.949Z,4.30
2023-11-27T01:29:22.674Z,4.13
2023-11-27T01:31:53.077Z,4.40
2023-11-27T01:34:20.254Z,4.00
2023-11-27T01:36:47.681Z,4.13
2023-11-27T01:39:15.421Z,4.40
2023-11-27T01:41:42.737Z,4.30
2023-11-27T01:44:09.918Z,4.80
2023-11-27T01:46:40.220Z,4.20
2023-11-27T01:49:07.423Z,4.33
2023-11-27T01:51:34.716Z,4.37
2023-11-27T01:54:01.994Z,4.87
2023-11-27T01:56:30.303Z,4.83
2023-11-27T01:58:58.874Z,4.53
2023-11-27T02:01:26.574Z,4.23
2023-11-27T02:03:54.007Z,4.83
2023-11-27T02:06:21.164Z,4.43
2023-11-27T02:08:48.455Z,5.10
2023-11-27T02:11:20.658Z,4.67
2023-11-27T02:13:48.031Z,4.23
2023-11-27T02:16:16.453Z,4.90
2023-11-27T02:18:43.787Z,5.00
2023-11-27T02:21:11.706Z,4.87
2023-11-27T02:23:39.034Z,4.53
2023-11-27T02:26:07.310Z,4.33
2023-11-27T02:28:34.486Z,4.60
2023-11-27T02:31:01.959Z,4.73
2023-11-27T02:33:29.358Z,4.23
2023-11-27T02:35:56.509Z,4.20
2023-11-27T02:38:23.656Z,4.30
2023-11-27T02:40:52.215Z,4.00
2023-11-27T02:43:19.658Z,4.03
2023-11-27T02:45:47.064Z,4.17
2023-11-27T02:48:14.436Z,4.77
2023-11-27T02:50:41.661Z,4.10
2023-11-27T02:53:08.970Z,4.50
2023-11-27T02:55:36.135Z,4.20
2023-11-27T02:58:03.306Z,4.27
2023-11-27T03:00:30.515Z,4.23
2023-11-27T03:02:57.736Z,3.90
2023-11-27T03:05:24.874Z,4.70
2023-11-27T03:07:52.088Z,4.77
2023-11-27T03:10:19.564Z,4.80
2023-11-27T03:12:46.759Z,4.50
2023-11-27T03:15:14.124Z,5.10
2023-11-27T03:17:42.715Z,4.53
2023-11-27T03:20:11.894Z,4.33
2023-11-27T03:22:39.035Z,4.20
2023-11-27T03:25:06.623Z,5.20
2023-11-27T03:27:33.926Z,4.43
2023-11-27T03:30:04.758Z,5.40
2023-11-27T03:32:33.215Z,4.53
2023-11-27T03:35:00.597Z,5.00
2023-11-27T03:37:27.980Z,4.57
2023-11-27T03:39:55.211Z,4.80
2023-11-27T03:42:22.692Z,4.67
2023-11-27T03:44:49.850Z,4.27
2023-11-27T03:47:16.985Z,4.70
2023-11-27T03:49:44.184Z,4.60
2023-11-27T03:52:11.379Z,4.07
2023-11-27T03:54:38.541Z,4.67
2023-11-27T03:57:05.986Z,4.53
2023-11-27T03:59:33.139Z,4.70
2023-11-27T04:02:00.895Z,4.70
2023-11-27T04:04:28.284Z,4.17
2023-11-27T04:06:56.112Z,4.73
2023-11-27T04:09:23.347Z,4.57
2023-11-27T04:11:50.883Z,5.07
2023-11-27T04:14:18.042Z,4.70
2023-11-27T04:16:45.295Z,4.37
2023-11-27T04:19:12.675Z,4.73
2023-11-27T04:21:39.943Z,5.20
2023-11-27T04:24:07.174Z,5.10
2023-11-27T04:26:34.315Z,5.47
2023-11-27T04:29:02.078Z,5.60
2023-11-27T04:31:29.759Z,5.17
2023-11-27T04:33:57.114Z,6.13
2023-11-27T04:36:24.467Z,5.63
2023-11-27T04:38:51.792Z,5.50
2023-11-27T04:41:20.750Z,5.33
2023-11-27T04:43:48.089Z,5.43
2023-11-27T04:46:15.391Z,5.27
2023-11-27T04:48:42.745Z,5.60
2023-11-27T04:51:11.160Z,5.67
2023-11-27T04:53:38.414Z,6.00
2023-11-27T04:56:05.761Z,6.03
2023-11-27T04:58:32.954Z,5.67
2023-11-27T05:01:00.494Z,5.80
2023-11-27T05:03:28.494Z,5.77
2023-11-27T05:05:59.446Z,5.93
2023-11-27T05:08:27.076Z,6.07
2023-11-27T05:10:55.269Z,5.43
2023-11-27T05:13:23.014Z,5.97
2023-11-27T05:15:50.298Z,5.80
2023-11-27T05:18:17.655Z,5.70
2023-11-27T05:20:44.825Z,6.60
2023-11-27T05:23:12.044Z,6.10
2023-11-27T05:25:39.178Z,6.13
2023-11-27T05:28:06.428Z,6.10
2023-11-27T05:30:33.689Z,6.37
2023-11-27T05:33:01.158Z,6.00
2023-11-27T05:35:28.628Z,6.10
2023-11-27T05:37:55.800Z,6.57
2023-11-27T05:40:23.675Z,6.30
2023-11-27T05:42:51.047Z,6.03
2023-11-27T05:45:18.789Z,6.37
2023-11-27T05:47:46.307Z,6.53
2023-11-27T05:50:13.985Z,5.70
2023-11-27T05:52:41.452Z,5.70
2023-11-27T05:55:08.950Z,6.20
2023-11-27T05:57:36.190Z,6.20
2023-11-27T06:00:04.490Z,6.30
2023-11-27T06:02:31.970Z,5.83
2023-11-27T06:04:59.219Z,6.23
2023-11-27T06:07:26.457Z,5.50
2023-11-27T06:09:53.675Z,5.63
2023-11-27T06:12:21.653Z,5.57
2023-11-27T06:14:48.822Z,5.43
2023-11-27T06:17:15.976Z,5.50
2023-11-27T06:19:43.174Z,5.60
2023-11-27T06:22:10.668Z,5.07
2023-11-27T06:24:37.816Z,5.87
2023-11-27T06:27:04.984Z,5.70
2023-11-27T06:29:32.420Z,5.63
2023-11-27T06:31:59.706Z,5.20
2023-11-27T06:34:26.907Z,5.50
2023-11-27T06:36:54.163Z,5.37
2023-11-27T06:39:22.034Z,5.60
2023-11-27T06:41:49.502Z,5.50
2023-11-27T06:44:19.397Z,4.90
2023-11-27T06:46:49.839Z,5.63
2023-11-27T06:49:17.262Z,5.40
2023-11-27T06:51:44.454Z,5.73
2023-11-27T06:54:11.605Z,4.73
2023-11-27T06:56:38.860Z,5.07
2023-11-27T06:59:06.235Z,4.97
2023-11-27T07:01:33.962Z,5.00
2023-11-27T07:04:01.996Z,4.97
2023-11-27T07:06:29.607Z,5.00
2023-11-27T07:08:56.805Z,4.80
2023-11-27T07:11:26.077Z,4.50
2023-11-27T07:13:53.556Z,4.47
2023-11-27T07:16:20.866Z,4.43
2023-11-27T07:18:48.443Z,4.33
2023-11-27T07:21:15.857Z,4.37
2023-11-27T07:23:45.754Z,4.20
2023-11-27T07:26:13.073Z,4.33
2023-11-27T07:28:43.960Z,4.37
2023-11-27T07:31:11.573Z,4.50
2023-11-27T07:33:41.547Z,4.43
2023-11-27T07:36:09.890Z,4.63
2023-11-27T07:38:37.068Z,4.00
2023-11-27T07:41:07.688Z,3.90
2023-11-27T07:43:35.795Z,4.47
2023-11-27T07:46:07.898Z,4.47
2023-11-27T07:48:35.378Z,4.50
2023-11-27T07:51:06.206Z,4.80
2023-11-27T07:53:33.397Z,4.37
2023-11-27T07:56:00.646Z,4.70
2023-11-27T07:58:27.899Z,4.60
2023-11-27T08:00:55.221Z,4.10
2023-11-27T08:03:23.015Z,4.47
2023-11-27T08:05:50.198Z,5.00
2023-11-27T08:08:18.136Z,5.50
2023-11-27T08:10:45.495Z,4.97
2023-11-27T08:13:15.479Z,4.87
2023-11-27T08:15:44.074Z,4.97
2023-11-27T08:18:12.860Z,5.07
2023-11-27T08:20:40.523Z,5.10
2023-11-27T08:23:07.725Z,4.63
2023-11-27T08:25:34.915Z,5.13
2023-11-27T08:28:03.808Z,4.60
2023-11-27T08:30:33.919Z,4.60
2023-11-27T08:33:02.322Z,4.53
2023-11-27T08:35:34.833Z,4.87
2023-11-27T08:38:02.543Z,4.40
2023-11-27T08:40:29.756Z,5.13
2023-11-27T08:42:57.042Z,4.70
2023-11-27T08:45:24.868Z,4.60
2023-11-27T08:47:52.959Z,4.97
2023-11-27T08:50:22.803Z,4.63
2023-11-27T08:52:50.032Z,4.77
2023-11-27T08:55:20.203Z,4.33
2023-11-27T08:57:48.076Z,4.03
2023-11-27T09:00:18.903Z,4.63
2023-11-27T09:02:49.660Z,4.17
2023-11-27T09:05:16.956Z,4.50
2023-11-27T09:07:44.933Z,4.20
2023-11-27T09:10:12.146Z,4.37
2023-11-27T09:12:39.916Z,3.80
2023-11-27T09:15:07.304Z,4.00
2023-11-27T09:17:34.513Z,3.67
2023-11-27T09:20:01.756Z,3.97
2023-11-27T09:22:28.889Z,4.50
2023-11-27T09:24:56.060Z,4.37
2023-11-27T09:27:23.658Z,3.90
2023-11-27T09:29:50.824Z,4.10
2023-11-27T09:32:18.078Z,4.30
2023-11-27T09:34:45.313Z,4.30
2023-11-27T09:37:12.459Z,4.30
2023-11-27T09:39:39.619Z,4.33
2023-11-27T09:42:06.830Z,4.10
2023-11-27T09:44:33.996Z,3.40
2023-11-27T09:47:03.230Z,3.80
2023-11-27T09:49:33.067Z,3.70
2023-11-27T09:52:04.545Z,3.40
2023-11-27T09:54:34.709Z,3.23
2023-11-27T09:57:03.309Z,3.67
2023-11-27T09:59:31.217Z,3.23
2023-11-27T10:02:00.191Z,3.40
2023-11-27T10:04:27.758Z,3.40
2023-11-27T10:06:55.080Z,3.30
2023-11-27T10:09:23.225Z,2.80
2023-11-27T10:11:52.541Z,3.77
2023-11-27T10:16:50.973Z,4.17
2023-11-27T10:19:20.901Z,3.70
2023-11-27T10:21:48.266Z,3.80
2023-11-27T10:24:17.418Z,3.63
2023-11-27T10:26:45.276Z,3.50
2023-11-27T10:29:12.635Z,3.73
2023-11-27T10:31:42.213Z,3.53
2023-11-27T10:34:09.669Z,3.40
2023-11-27T10:36:36.921Z,3.70
2023-11-27T10:39:10.190Z,3.90
2023-11-27T10:41:37.777Z,3.70
2023-11-27T10:44:05.374Z,2.93
2023-11-27T10:46:33.154Z,3.20
2023-11-27T10:49:01.245Z,3.00
2023-11-27T10:51:32.976Z,2.70
2023-11-27T10:54:01.754Z,2.70
2023-11-27T10:56:32.040Z,2.90
2023-11-27T10:59:06.833Z,2.47
2023-11-27T11:01:39.368Z,2.60
2023-11-27T11:04:17.534Z,2.70
2023-11-27T11:06:48.295Z,2.80
2023-11-27T11:09:17.076Z,3.07
2023-11-27T11:11:50.443Z,3.20
2023-11-27T11:14:20.484Z,2.80
2023-11-27T11:17:06.445Z,2.80
2023-11-27T11:19:37.248Z,8.03
2023-11-27T11:22:16.193Z,2.73
2023-11-27T11:24:52.019Z,3.27
2023-11-27T11:27:24.701Z,2.90
2023-11-27T11:29:54.593Z,2.70
2023-11-27T11:32:23.576Z,2.97
2023-11-27T11:34:51.836Z,3.20
2023-11-27T11:37:23.193Z,2.67
2023-11-27T11:39:55.379Z,2.67
2023-11-27T11:42:34.085Z,2.60
2023-11-27T11:45:19.111Z,2.70
2023-11-27T11:48:00.862Z,2.70
2023-11-27T11:50:32.727Z,3.03
2023-11-27T11:53:04.738Z,3.30
2023-11-27T11:55:35.536Z,3.23
2023-11-27T11:58:15.285Z,3.10
2023-11-27T12:04:13.001Z,3.20
2023-11-27T12:06:46.279Z,3.20
2023-11-27T12:09:14.643Z,3.10
2023-11-27T12:11:41.784Z,3.00
2023-11-27T12:14:17.596Z,2.97
2023-11-27T12:16:47.492Z,3.30
2023-11-27T12:19:20.181Z,3.07
2023-11-27T12:21:48.425Z,3.13
2023-11-27T12:24:15.604Z,3.20
2023-11-27T12:26:42.719Z,2.93
2023-11-27T12:29:09.835Z,2.90
2023-11-27T12:31:37.314Z,3.10
2023-11-27T12:34:05.293Z,2.63
2023-11-27T12:36:32.665Z,2.97
2023-11-27T12:39:00.002Z,2.50
2023-11-27T12:41:35.816Z,3.10
2023-11-27T12:44:19.865Z,3.33
2023-11-27T12:46:51.698Z,3.57
2023-11-27T12:49:26.333Z,3.70
2023-11-27T12:51:56.369Z,3.37
2023-11-27T12:54:24.404Z,3.13
2023-11-27T12:57:01.609Z,3.60
2023-11-27T12:59:28.994Z,3.30
2023-11-27T13:01:59.799Z,3.40
2023-11-27T13:04:31.879Z,3.33
2023-11-27T13:07:00.224Z,3.50
2023-11-27T13:09:27.584Z,3.13
2023-11-27T13:11:54.976Z,3.40
2023-11-27T13:14:23.445Z,4.10
2023-11-27T13:16:52.849Z,5.80
2023-11-27T13:19:20.692Z,4.03
2023-11-27T13:21:54.894Z,3.43
2023-11-27T13:24:27.725Z,3.87
2023-11-27T13:26:56.087Z,4.40
2023-11-27T13:29:26.809Z,5.03
2023-11-27T13:31:54.031Z,4.97
2023-11-27T13:34:33.821Z,3.70
2023-11-27T13:37:08.699Z,4.10
2023-11-27T13:39:39.148Z,5.30
2023-11-27T13:42:09.784Z,4.93
2023-11-27T13:44:40.086Z,5.70
2023-11-27T13:47:07.624Z,4.10
2023-11-27T13:49:35.587Z,3.93
2023-11-27T13:54:33.761Z,4.37
2023-11-27T13:57:00.989Z,4.30
2023-11-27T13:59:36.188Z,4.30
2023-11-27T14:02:13.454Z,4.37
2023-11-27T14:04:55.699Z,4.70
2023-11-27T14:07:25.765Z,6.50
2023-11-27T14:09:56.707Z,8.37
2023-11-27T14:12:39.683Z,6.20
2023-11-27T14:15:09.717Z,13.23
2023-11-27T14:17:39.189Z,10.47
2023-11-27T14:20:25.553Z,13.03
2023-11-27T14:23:05.825Z,5.50
2023-11-27T14:25:48.735Z,4.73
2023-11-27T14:28:21.400Z,5.43
2023-11-27T14:30:49.103Z,5.70
2023-11-27T14:33:17.253Z,5.73
2023-11-27T14:35:47.959Z,5.73
2023-11-27T14:38:16.638Z,6.77
2023-11-27T14:40:43.793Z,6.57
2023-11-27T14:43:13.432Z,6.53
2023-11-27T14:45:46.571Z,5.90
2023-11-27T14:48:14.546Z,7.20
2023-11-27T14:50:42.569Z,6.27
2023-11-27T14:53:10.938Z,28.30
2023-11-27T14:55:40.120Z,9.73
2023-11-27T14:58:07.790Z,8.43
2023-11-27T15:00:37.147Z,7.60
2023-11-27T15:03:05.187Z,6.97
2023-11-27T15:05:32.487Z,7.57
2023-11-27T15:07:59.879Z,7.37
2023-11-27T15:10:28.319Z,7.43
2023-11-27T15:12:56.758Z,7.83
2023-11-27T15:15:27.513Z,9.17
2023-11-27T15:17:54.957Z,10.97
2023-11-27T15:20:27.997Z,11.63
2023-11-27T15:22:57.442Z,12.30
2023-11-27T15:25:24.769Z,11.93
2023-11-27T15:27:52.356Z,12.00
2023-11-27T15:30:19.621Z,12.67
2023-11-27T15:32:47.470Z,13.00
2023-11-27T15:35:18.829Z,13.00
2023-11-27T15:37:46.838Z,13.13
2023-11-27T15:40:21.249Z,12.80
2023-11-27T15:42:48.716Z,14.17
2023-11-27T15:45:18.665Z,12.87
2023-11-27T15:47:46.097Z,11.87
2023-11-27T15:50:15.062Z,11.20
2023-11-27T15:52:46.941Z,11.83
2023-11-27T15:55:15.004Z,12.83
2023-11-27T15:57:44.947Z,14.03
2023-11-27T16:00:15.816Z,14.10
2023-11-27T16:02:43.163Z,14.27
2023-11-27T16:05:10.521Z,14.83
2023-11-27T16:07:41.312Z,18.57
2023-11-27T16:10:14.776Z,17.00
2023-11-27T16:12:42.565Z,15.53
2023-11-27T16:15:13.754Z,15.50
2023-11-27T16:17:52.783Z,15.47
2023-11-27T16:20:26.487Z,17.17
2023-11-27T16:22:53.798Z,17.57
2023-11-27T16:25:21.732Z,16.87
2023-11-27T16:27:48.994Z,16.57
2023-11-27T16:30:22.684Z,18.70
2023-11-27T16:32:50.858Z,16.00
2023-11-27T16:35:24.641Z,15.03
2023-11-27T16:37:52.554Z,16.57
2023-11-27T16:40:21.387Z,15.43
2023-11-27T16:42:52.805Z,15.27
2023-11-27T16:45:23.335Z,13.73
2023-11-27T16:47:54.134Z,14.33
2023-11-27T16:50:25.815Z,15.27
2023-11-27T16:52:54.134Z,14.90
2023-11-27T16:55:21.494Z,15.53
2023-11-27T16:57:50.591Z,18.07
2023-11-27T17:00:25.035Z,14.63
2023-11-27T17:02:53.477Z,15.50
2023-11-27T17:05:22.804Z,14.23
2023-11-27T17:07:53.428Z,15.27
2023-11-27T17:10:22.610Z,15.60
2023-11-27T17:12:50.528Z,15.23
2023-11-27T17:15:17.895Z,14.43
2023-11-27T17:17:45.702Z,14.93
2023-11-27T17:20:13.592Z,14.70
2023-11-27T17:22:55.762Z,16.00
2023-11-27T17:25:31.800Z,17.90
2023-11-27T17:28:00.000Z,17.33
2023-11-27T17:30:27.281Z,17.43
2023-11-27T17:32:54.693Z,16.57
2023-11-27T17:35:21.918Z,18.00
2023-11-27T17:37:50.694Z,18.43
2023-11-27T17:40:19.127Z,18.23
2023-11-27T17:42:47.903Z,18.80
2023-11-27T17:45:15.856Z,17.27
2023-11-27T17:47:43.580Z,17.13
2023-11-27T17:50:14.488Z,29.43
2023-11-27T17:52:45.223Z,23.20
2023-11-27T17:55:14.826Z,26.20
2023-11-27T17:57:44.102Z,23.87
2023-11-27T18:00:18.028Z,22.53
2023-11-27T18:02:48.790Z,22.53
2023-11-27T18:05:18.339Z,22.40
2023-11-27T18:07:45.511Z,19.87
2023-11-27T18:10:12.917Z,20.93
2023-11-27T18:12:43.480Z,22.57
2023-11-27T18:15:16.603Z,22.43
2023-11-27T18:17:45.167Z,19.57
2023-11-27T18:20:13.777Z,23.10
2023-11-27T18:22:41.762Z,22.23
2023-11-27T18:25:11.177Z,19.90
2023-11-27T18:27:38.612Z,20.17
2023-11-27T18:30:06.505Z,21.73
2023-11-27T18:32:33.722Z,20.83
2023-11-27T18:35:01.964Z,20.57
2023-11-27T18:37:32.352Z,22.17
2023-11-27T18:39:59.541Z,21.97
2023-11-27T18:42:39.101Z,20.90
2023-11-27T18:45:09.804Z,22.53
2023-11-27T18:47:41.455Z,22.53
2023-11-27T18:50:09.121Z,22.50
2023-11-27T18:52:37.254Z,24.23
2023-11-27T18:55:04.664Z,19.33
2023-11-27T18:57:32.329Z,26.30
2023-11-27T19:00:00.408Z,27.27
2023-11-27T19:02:28.203Z,25.93
2023-11-27T19:04:55.520Z,27.57
2023-11-27T19:07:22.750Z,23.27
2023-11-27T19:09:49.939Z,28.17
2023-11-27T19:12:17.095Z,30.67
2023-11-27T19:14:45.290Z,34.37
2023-11-27T19:17:13.391Z,27.73
2023-11-27T19:19:40.654Z,39.13
2023-11-27T19:22:08.106Z,31.20
2023-11-27T19:24:35.327Z,38.03
2023-11-27T19:27:04.791Z,45.03
2023-11-27T19:29:32.135Z,33.27
2023-11-27T19:31:59.464Z,26.60
2023-11-27T19:34:27.886Z,29.40
2023-11-27T19:36:57.203Z,29.43
2023-11-27T19:39:25.345Z,32.83
2023-11-27T19:41:53.388Z,28.43
2023-11-27T19:44:21.600Z,31.73
2023-11-27T19:46:51.922Z,26.47
2023-11-27T19:49:21.028Z,28.80
2023-11-27T19:51:48.483Z,26.83
2023-11-27T19:54:19.668Z,28.77
2023-11-27T19:56:47.612Z,26.33
2023-11-27T19:59:14.839Z,33.10
2023-11-27T20:01:42.171Z,32.83
2023-11-27T20:04:09.492Z,30.27
2023-11-27T20:06:40.773Z,31.20
2023-11-27T20:09:12.789Z,28.93
2023-11-27T20:11:40.605Z,29.00
2023-11-27T20:14:08.236Z,28.50
2023-11-27T20:16:35.905Z,28.07
2023-11-27T20:19:06.609Z,27.60
2023-11-27T20:21:34.220Z,28.80
2023-11-27T20:24:01.651Z,26.13
2023-11-27T20:26:29.707Z,27.17
2023-11-27T20:29:01.912Z,26.13
2023-11-27T20:31:36.470Z,25.30
2023-11-27T20:34:05.781Z,25.77
2023-11-27T20:36:38.947Z,23.03
2023-11-27T20:39:12.049Z,25.70
2023-11-27T20:41:42.332Z,21.83
2023-11-27T20:44:10.240Z,21.67
2023-11-27T20:46:37.897Z,15.10
2023-11-27T20:49:06.088Z,17.57
2023-11-27T20:51:33.635Z,23.73
2023-11-27T20:54:01.047Z,20.77
2023-11-27T20:56:28.198Z,21.43
2023-11-27T20:58:55.464Z,20.07
2023-11-27T21:01:28.315Z,15.30
2023-11-27T21:03:56.189Z,14.00
2023-11-27T21:06:25.997Z,15.57
2023-11-27T21:08:53.957Z,16.40
2023-11-27T21:11:24.038Z,17.27
2023-11-27T21:13:52.366Z,17.13
2023-11-27T21:16:21.311Z,9.00
2023-11-27T21:18:48.802Z,11.70
2023-11-27T21:21:16.032Z,9.37
2023-11-27T21:23:44.009Z,12.07
2023-11-27T21:26:13.164Z,15.93
2023-11-27T21:28:42.620Z,18.20
2023-11-27T21:31:10.387Z,18.27
2023-11-27T21:33:37.764Z,18.73
2023-11-27T21:36:05.040Z,18.40
2023-11-27T21:38:32.186Z,16.27
2023-11-27T21:40:59.430Z,19.70
2023-11-27T21:43:26.723Z,15.80
2023-11-27T21:48:21.332Z,17.97
2023-11-27T21:50:48.491Z,18.23
2023-11-27T21:53:16.362Z,18.23
2023-11-27T21:55:43.862Z,16.87
2023-11-27T21:58:11.117Z,14.03
2023-11-27T22:00:38.287Z,15.37
2023-11-27T22:03:05.524Z,13.70
2023-11-27T22:05:33.262Z,12.23
2023-11-27T22:08:00.537Z,10.97
2023-11-27T22:10:28.584Z,14.70
2023-11-27T22:12:55.909Z,11.50
2023-11-27T22:15:23.046Z,18.03
2023-11-27T22:17:50.282Z,15.53
2023-11-27T22:20:17.424Z,17.37
2023-11-27T22:22:44.730Z,15.67
2023-11-27T22:25:12.099Z,16.57
2023-11-27T22:27:39.555Z,18.50
2023-11-27T22:30:08.162Z,17.87
2023-11-27T22:32:35.512Z,14.60
2023-11-27T22:35:02.795Z,16.40
2023-11-27T22:37:29.969Z,17.13
2023-11-27T22:39:57.206Z,13.03
2023-11-27T22:42:24.323Z,14.30
2023-11-27T22:44:51.554Z,17.80
2023-11-27T22:47:18.714Z,16.20
2023-11-27T22:49:46.049Z,16.93
2023-11-27T22:52:13.888Z,16.10
2023-11-27T22:54:42.908Z,18.10
2023-11-27T22:57:10.876Z,18.87
2023-11-27T22:59:41.273Z,17.10
2023-11-27T23:02:09.431Z,14.23
2023-11-27T23:04:36.757Z,12.40
2023-11-27T23:07:05.180Z,13.77
2023-11-27T23:09:32.967Z,13.50
2023-11-27T23:12:00.124Z,7.30
2023-11-27T23:14:27.349Z,12.33
2023-11-27T23:16:54.652Z,10.73
2023-11-27T23:19:21.932Z,14.97
2023-11-27T23:21:49.206Z,14.20
2023-11-27T23:24:20.985Z,9.63
2023-11-27T23:26:53.823Z,8.13
2023-11-27T23:29:22.782Z,7.60
2023-11-27T23:31:53.275Z,13.07
2023-11-27T23:34:23.034Z,11.67
2023-11-27T23:36:50.310Z,13.77
2023-11-27T23:39:17.853Z,13.13
2023-11-27T23:41:45.086Z,15.17
2023-11-27T23:44:12.215Z,15.73
2023-11-27T23:46:39.483Z,13.13
2023-11-27T23:49:06.641Z,13.13
2023-11-27T23:51:33.888Z,11.30
2023-11-27T23:54:01.047Z,13.97
2023-11-27T23:56:28.225Z,9.77
2023-11-27T23:58:55.410Z,9.13
